sensor_id;sensor_type;location;lat;lon;timestamp;P1;durP1;ratioP1;P2;durP2;ratioP2
71821;SDS011;64096;52.548;13.406;2023-03-07T06:01:44;18.73;;;12.55;;
71821;SDS011;64096;52.548;13.406;2023-03-07T06:04:11;19.10;;;11.85;;
71821;SDS011;64096;52.548;13.406;2023-03-07T06:06:37;19.92;;;13.05;;
71821;SDS011;64096;52.548;13.406;2023-03-07T06:09:03;19.42;;;12.63;;
71821;SDS011;64096;52.548;13.406;2023-03-07T06:11:30;17.90;;;11.55;;
71821;SDS011;64096;52.548;13.406;2023-03-07T06:13:56;18.83;;;12.35;;
71821;SDS011;64096;52.548;13.406;2023-03-07T06:16:22;17.25;;;11.38;;
71821;SDS011;64096;52.548;13.406;2023-03-07T06:18:48;19.10;;;12.60;;
71821;SDS011;64096;52.548;13.406;2023-03-07T06:21:15;17.80;;;12.07;;
71821;SDS011;64096;52.548;13.406;2023-03-07T06:23:42;19.00;;;12.65;;
71821;SDS011;64096;52.548;13.406;2023-03-07T06:26:08;17.92;;;12.55;;
71821;SDS011;64096;52.548;13.406;2023-03-07T06:28:40;16.77;;;11.48;;
71821;SDS011;64096;52.548;13.406;2023-03-07T06:31:09;19.05;;;11.65;;
71821;SDS011;64096;52.548;13.406;2023-03-07T06:33:36;17.70;;;11.02;;
71821;SDS011;64096;52.548;13.406;2023-03-07T06:36:05;17.60;;;11.70;;
71821;SDS011;64096;52.548;13.406;2023-03-07T06:38:32;19.27;;;12.40;;
71821;SDS011;64096;52.548;13.406;2023-03-07T06:40:58;18.50;;;12.68;;
71821;SDS011;64096;52.548;13.406;2023-03-07T06:43:24;18.25;;;11.82;;
71821;SDS011;64096;52.548;13.406;2023-03-07T06:45:50;17.40;;;11.68;;
71821;SDS011;64096;52.548;13.406;2023-03-07T06:48:16;16.90;;;11.63;;
71821;SDS011;64096;52.548;13.406;2023-03-07T06:50:43;17.30;;;11.68;;
71821;SDS011;64096;52.548;13.406;2023-03-07T06:53:09;18.48;;;11.57;;
71821;SDS011;64096;52.548;13.406;2023-03-07T06:55:35;18.63;;;11.23;;
71821;SDS011;64096;52.548;13.406;2023-03-07T06:58:01;18.23;;;12.15;;
71821;SDS011;64096;52.548;13.406;2023-03-07T07:00:28;19.30;;;12.23;;
71821;SDS011;64096;52.548;13.406;2023-03-07T07:02:54;18.15;;;11.20;;
71821;SDS011;64096;52.548;13.406;2023-03-07T07:05:20;16.88;;;11.35;;
71821;SDS011;64096;52.548;13.406;2023-03-07T07:07:46;16.92;;;10.90;;
71821;SDS011;64096;52.548;13.406;2023-03-07T07:10:12;17.10;;;11.30;;
71821;SDS011;64096;52.548;13.406;2023-03-07T07:12:39;19.20;;;12.30;;
71821;SDS011;64096;52.548;13.406;2023-03-07T07:15:05;18.23;;;12.38;;
71821;SDS011;64096;52.548;13.406;2023-03-07T07:17:31;17.20;;;11.57;;
71821;SDS011;64096;52.548;13.406;2023-03-07T07:20:03;15.55;;;10.43;;
71821;SDS011;64096;52.548;13.406;2023-03-07T07:22:30;18.15;;;12.00;;
71821;SDS011;64096;52.548;13.406;2023-03-07T07:24:56;18.15;;;11.93;;
71821;SDS011;64096;52.548;13.406;2023-03-07T07:27:22;17.30;;;11.73;;
71821;SDS011;64096;52.548;13.406;2023-03-07T07:29:48;17.05;;;10.27;;
71821;SDS011;64096;52.548;13.406;2023-03-07T07:32:14;18.80;;;11.52;;
71821;SDS011;64096;52.548;13.406;2023-03-07T07:34:41;17.88;;;10.70;;
71821;SDS011;64096;52.548;13.406;2023-03-07T07:37:07;15.93;;;10.43;;
71821;SDS011;64096;52.548;13.406;2023-03-07T07:39:33;16.42;;;9.88;;
71821;SDS011;64096;52.548;13.406;2023-03-07T07:41:59;19.17;;;11.60;;
71821;SDS011;64096;52.548;13.406;2023-03-07T07:44:27;16.55;;;11.13;;
71821;SDS011;64096;52.548;13.406;2023-03-07T07:46:55;17.20;;;11.07;;
71821;SDS011;64096;52.548;13.406;2023-03-07T07:49:21;18.02;;;11.07;;
71821;SDS011;64096;52.548;13.406;2023-03-07T07:51:47;17.35;;;11.35;;
71821;SDS011;64096;52.548;13.406;2023-03-07T07:54:13;18.50;;;11.20;;
71821;SDS011;64096;52.548;13.406;2023-03-07T07:56:39;13.60;;;9.35;;
71821;SDS011;64096;52.548;13.406;2023-03-07T07:59:05;18.30;;;10.80;;
71821;SDS011;64096;52.548;13.406;2023-03-07T08:01:31;14.80;;;9.77;;
71821;SDS011;64096;52.548;13.406;2023-03-07T08:03:57;14.73;;;9.70;;
71821;SDS011;64096;52.548;13.406;2023-03-07T08:06:24;15.82;;;9.98;;
71821;SDS011;64096;52.548;13.406;2023-03-07T08:08:51;16.83;;;10.75;;
71821;SDS011;64096;52.548;13.406;2023-03-07T08:11:17;16.95;;;10.70;;
71821;SDS011;64096;52.548;13.406;2023-03-07T08:13:44;14.65;;;9.73;;
71821;SDS011;64096;52.548;13.406;2023-03-07T08:16:11;14.77;;;9.65;;
71821;SDS011;64096;52.548;13.406;2023-03-07T08:18:39;15.55;;;10.27;;
71821;SDS011;64096;52.548;13.406;2023-03-07T08:21:05;14.68;;;9.30;;
71821;SDS011;64096;52.548;13.406;2023-03-07T08:23:31;15.90;;;9.90;;
71821;SDS011;64096;52.548;13.406;2023-03-07T08:26:01;15.07;;;9.48;;
71821;SDS011;64096;52.548;13.406;2023-03-07T08:28:27;15.75;;;9.65;;
71821;SDS011;64096;52.548;13.406;2023-03-07T08:30:53;13.30;;;9.50;;
71821;SDS011;64096;52.548;13.406;2023-03-07T08:33:19;14.80;;;9.65;;
71821;SDS011;64096;52.548;13.406;2023-03-07T08:35:45;15.05;;;9.95;;
71821;SDS011;64096;52.548;13.406;2023-03-07T08:38:12;14.52;;;9.18;;
71821;SDS011;64096;52.548;13.406;2023-03-07T08:40:38;18.05;;;10.40;;
71821;SDS011;64096;52.548;13.406;2023-03-07T08:43:04;13.52;;;8.98;;
71821;SDS011;64096;52.548;13.406;2023-03-07T08:45:30;14.43;;;9.40;;
71821;SDS011;64096;52.548;13.406;2023-03-07T08:47:56;16.15;;;9.77;;
71821;SDS011;64096;52.548;13.406;2023-03-07T08:50:23;16.25;;;10.70;;
71821;SDS011;64096;52.548;13.406;2023-03-07T08:52:49;14.65;;;9.15;;
71821;SDS011;64096;52.548;13.406;2023-03-07T08:55:16;14.13;;;9.30;;
71821;SDS011;64096;52.548;13.406;2023-03-07T08:57:42;14.93;;;9.13;;
71821;SDS011;64096;52.548;13.406;2023-03-07T09:00:09;13.10;;;9.10;;
71821;SDS011;64096;52.548;13.406;2023-03-07T09:02:36;12.93;;;8.40;;
71821;SDS011;64096;52.548;13.406;2023-03-07T09:05:02;12.63;;;8.10;;
71821;SDS011;64096;52.548;13.406;2023-03-07T09:07:29;13.95;;;8.57;;
71821;SDS011;64096;52.548;13.406;2023-03-07T09:09:55;15.25;;;8.98;;
71821;SDS011;64096;52.548;13.406;2023-03-07T09:12:21;12.65;;;8.65;;
71821;SDS011;64096;52.548;13.406;2023-03-07T09:14:47;13.77;;;8.88;;
71821;SDS011;64096;52.548;13.406;2023-03-07T09:17:13;12.50;;;8.35;;
71821;SDS011;64096;52.548;13.406;2023-03-07T09:19:39;12.35;;;8.35;;
71821;SDS011;64096;52.548;13.406;2023-03-07T09:22:07;12.45;;;8.30;;
71821;SDS011;64096;52.548;13.406;2023-03-07T09:24:33;12.82;;;8.32;;
71821;SDS011;64096;52.548;13.406;2023-03-07T09:26:59;11.60;;;7.88;;
71821;SDS011;64096;52.548;13.406;2023-03-07T09:29:25;12.10;;;7.72;;
71821;SDS011;64096;52.548;13.406;2023-03-07T09:31:51;10.38;;;7.13;;
71821;SDS011;64096;52.548;13.406;2023-03-07T09:34:18;11.55;;;7.43;;
71821;SDS011;64096;52.548;13.406;2023-03-07T09:36:44;11.48;;;7.25;;
71821;SDS011;64096;52.548;13.406;2023-03-07T09:39:10;11.40;;;7.28;;
71821;SDS011;64096;52.548;13.406;2023-03-07T09:44:20;12.65;;;8.02;;
71821;SDS011;64096;52.548;13.406;2023-03-07T09:47:09;11.02;;;7.75;;
71821;SDS011;64096;52.548;13.406;2023-03-07T09:49:49;10.00;;;6.38;;
71821;SDS011;64096;52.548;13.406;2023-03-07T09:52:20;10.57;;;7.05;;
71821;SDS011;64096;52.548;13.406;2023-03-07T09:54:57;9.68;;;6.70;;
71821;SDS011;64096;52.548;13.406;2023-03-07T09:57:31;9.35;;;6.25;;
71821;SDS011;64096;52.548;13.406;2023-03-07T09:59:59;11.48;;;7.50;;
71821;SDS011;64096;52.548;13.406;2023-03-07T10:07:28;9.07;;;5.50;;
71821;SDS011;64096;52.548;13.406;2023-03-07T10:09:57;10.15;;;6.47;;
71821;SDS011;64096;52.548;13.406;2023-03-07T10:12:29;8.93;;;6.28;;
71821;SDS011;64096;52.548;13.406;2023-03-07T10:17:40;9.77;;;5.78;;
71821;SDS011;64096;52.548;13.406;2023-03-07T10:22:55;7.65;;;5.20;;
71821;SDS011;64096;52.548;13.406;2023-03-07T10:27:52;8.13;;;5.20;;
71821;SDS011;64096;52.548;13.406;2023-03-07T10:30:23;7.40;;;4.80;;
71821;SDS011;64096;52.548;13.406;2023-03-07T10:32:54;7.45;;;4.88;;
71821;SDS011;64096;52.548;13.406;2023-03-07T10:35:23;7.30;;;4.90;;
71821;SDS011;64096;52.548;13.406;2023-03-07T10:38:29;5.82;;;3.60;;
71821;SDS011;64096;52.548;13.406;2023-03-07T10:40:51;7.30;;;5.00;;
71821;SDS011;64096;52.548;13.406;2023-03-07T10:43:22;7.30;;;3.60;;
71821;SDS011;64096;52.548;13.406;2023-03-07T10:45:51;5.72;;;2.88;;
71821;SDS011;64096;52.548;13.406;2023-03-07T10:48:17;4.60;;;2.58;;
71821;SDS011;64096;52.548;13.406;2023-03-07T10:53:30;7.13;;;1.95;;
71821;SDS011;64096;52.548;13.406;2023-03-07T10:56:16;3.38;;;1.80;;
71821;SDS011;64096;52.548;13.406;2023-03-07T10:59:02;3.53;;;1.73;;
71821;SDS011;64096;52.548;13.406;2023-03-07T11:01:29;4.20;;;1.80;;
71821;SDS011;64096;52.548;13.406;2023-03-07T11:04:03;3.70;;;1.80;;
71821;SDS011;64096;52.548;13.406;2023-03-07T11:06:39;2.97;;;1.65;;
71821;SDS011;64096;52.548;13.406;2023-03-07T11:11:37;3.85;;;1.80;;
71821;SDS011;64096;52.548;13.406;2023-03-07T11:14:05;4.43;;;2.10;;
71821;SDS011;64096;52.548;13.406;2023-03-07T11:16:31;4.00;;;2.00;;
71821;SDS011;64096;52.548;13.406;2023-03-07T11:18:57;3.47;;;1.88;;
71821;SDS011;64096;52.548;13.406;2023-03-07T11:21:28;3.38;;;1.75;;
71821;SDS011;64096;52.548;13.406;2023-03-07T11:24:37;3.85;;;1.95;;
71821;SDS011;64096;52.548;13.406;2023-03-07T11:26:44;3.88;;;2.00;;
71821;SDS011;64096;52.548;13.406;2023-03-07T11:29:11;3.70;;;1.80;;
71821;SDS011;64096;52.548;13.406;2023-03-07T11:31:43;4.13;;;1.90;;
71821;SDS011;64096;52.548;13.406;2023-03-07T11:36:38;6.38;;;3.28;;
71821;SDS011;64096;52.548;13.406;2023-03-07T11:39:23;4.85;;;2.60;;
71821;SDS011;64096;52.548;13.406;2023-03-07T11:41:55;3.92;;;1.95;;
71821;SDS011;64096;52.548;13.406;2023-03-07T11:44:33;11.18;;;7.32;;
71821;SDS011;64096;52.548;13.406;2023-03-07T11:52:30;5.28;;;1.67;;
71821;SDS011;64096;52.548;13.406;2023-03-07T11:55:13;4.00;;;1.90;;
71821;SDS011;64096;52.548;13.406;2023-03-07T12:03:06;2.78;;;1.60;;
71821;SDS011;64096;52.548;13.406;2023-03-07T12:08:25;3.05;;;1.42;;
71821;SDS011;64096;52.548;13.406;2023-03-07T12:10:58;4.13;;;1.50;;
71821;SDS011;64096;52.548;13.406;2023-03-07T12:13:36;5.32;;;2.03;;
71821;SDS011;64096;52.548;13.406;2023-03-07T12:18:42;4.60;;;2.00;;
71821;SDS011;64096;52.548;13.406;2023-03-07T12:26:47;3.80;;;1.60;;
71821;SDS011;64096;52.548;13.406;2023-03-07T12:29:22;2.63;;;1.25;;
71821;SDS011;64096;52.548;13.406;2023-03-07T12:31:51;3.17;;;1.42;;
71821;SDS011;64096;52.548;13.406;2023-03-07T12:34:24;4.18;;;1.27;;
71821;SDS011;64096;52.548;13.406;2023-03-07T12:36:58;1.58;;;0.90;;
71821;SDS011;64096;52.548;13.406;2023-03-07T12:39:27;3.40;;;0.90;;
71821;SDS011;64096;52.548;13.406;2023-03-07T12:41:57;1.73;;;0.70;;
71821;SDS011;64096;52.548;13.406;2023-03-07T12:44:31;2.65;;;0.90;;
71821;SDS011;64096;52.548;13.406;2023-03-07T12:47:00;2.00;;;0.77;;
71821;SDS011;64096;52.548;13.406;2023-03-07T12:49:38;1.65;;;0.60;;
71821;SDS011;64096;52.548;13.406;2023-03-07T12:52:11;2.05;;;0.88;;
71821;SDS011;64096;52.548;13.406;2023-03-07T12:54:41;2.25;;;1.17;;
71821;SDS011;64096;52.548;13.406;2023-03-07T12:57:10;2.97;;;0.85;;
71821;SDS011;64096;52.548;13.406;2023-03-07T12:59:40;3.67;;;1.52;;
71821;SDS011;64096;52.548;13.406;2023-03-07T13:04:39;5.47;;;1.30;;
71821;SDS011;64096;52.548;13.406;2023-03-07T13:07:24;3.00;;;0.93;;
71821;SDS011;64096;52.548;13.406;2023-03-07T13:09:52;2.20;;;1.10;;
71821;SDS011;64096;52.548;13.406;2023-03-07T13:14:58;1.80;;;0.70;;
71821;SDS011;64096;52.548;13.406;2023-03-07T13:20:01;2.53;;;0.90;;
71821;SDS011;64096;52.548;13.406;2023-03-07T13:24:59;3.25;;;1.13;;
71821;SDS011;64096;52.548;13.406;2023-03-07T13:27:43;2.47;;;0.80;;
71821;SDS011;64096;52.548;13.406;2023-03-07T13:30:18;2.53;;;0.90;;
71821;SDS011;64096;52.548;13.406;2023-03-07T13:32:53;2.17;;;0.88;;
71821;SDS011;64096;52.548;13.406;2023-03-07T13:37:58;2.00;;;0.73;;
71821;SDS011;64096;52.548;13.406;2023-03-07T13:43:03;1.60;;;0.68;;
71821;SDS011;64096;52.548;13.406;2023-03-07T13:48:02;2.63;;;1.00;;
71821;SDS011;64096;52.548;13.406;2023-03-07T13:55:40;2.03;;;0.80;;
